Time;durP1;ratioP1;P1;durP2;ratioP2;P2;SDS_P1;SDS_P2;PMS_P1;PMS_P2;Temp;Humidity;BMP_temperature;BMP_pressure;BME280_temperature;BME280_humidity;BME280_pressure;Samples;Min_cycle;Max_cycle;Signal;HPM_P1;HPM_P2
2022/04/02 00:01:08;;;;;;;7.45;3.45;;;;;;;1.46;72.56;101480.31;5020634;28;20030;-76
2022/04/02 00:03:33;;;;;;;7.97;3.28;;;;;;;1.46;72.09;101480.31;5014135;28;20034;-76
2022/04/02 00:05:59;;;;;;;7.65;3.15;;;;;;;1.47;72.10;101491.50;5011598;28;20343;-76
2022/04/02 00:08:25;;;;;;;7.25;3.40;;;;;;;1.48;71.09;101495.88;5013083;28;20029;-76
2022/04/02 00:10:51;;;;;;;6.50;3.13;;;;;;;1.47;70.99;101492.38;5018046;28;20052;-76
2022/04/02 00:13:16;;;;;;;8.15;3.20;;;;;;;1.46;71.19;101495.72;5021941;28;20021;-76
2022/04/02 00:15:42;;;;;;;8.07;3.47;;;;;;;1.46;72.26;101495.72;5011632;28;20021;-76
2022/04/02 00:18:07;;;;;;;8.48;3.10;;;;;;;1.47;71.88;101494.97;5021565;28;20096;-81
2022/04/02 00:20:32;;;;;;;7.82;3.60;;;;;;;1.46;72.69;101494.84;5010443;28;20029;-80
2022/04/02 00:25:41;;;;;;;8.05;3.88;;;;;;;1.45;71.49;101499.09;5012050;28;20072;-80
2022/04/02 00:28:06;;;;;;;8.50;3.95;;;;;;;1.44;71.72;101499.88;5013577;28;20152;-80
2022/04/02 00:30:32;;;;;;;6.57;3.25;;;;;;;1.46;70.93;101494.84;5014831;28;20094;-80
2022/04/02 00:32:58;;;;;;;6.70;2.83;;;;;;;1.46;70.89;101498.31;5015101;28;20021;-80
2022/04/02 00:35:23;;;;;;;7.55;3.50;;;;;;;1.48;70.53;101494.19;5021814;28;20310;-81
2022/04/02 00:37:49;;;;;;;7.03;3.28;;;;;;;1.49;70.72;101493.41;5013765;28;20064;-81
2022/04/02 00:40:14;;;;;;;7.53;3.65;;;;;;;1.50;70.75;101487.47;5012613;28;20018;-81
2022/04/02 00:42:39;;;;;;;7.00;3.47;;;;;;;1.51;70.05;101493.53;5014621;28;20025;-81
2022/04/02 00:45:05;;;;;;;8.15;3.28;;;;;;;1.51;70.67;101489.25;5013462;28;20022;-80
2022/04/02 00:47:30;;;;;;;9.65;3.53;;;;;;;1.51;70.30;101494.41;5015520;28;20026;-81
2022/04/02 00:49:57;;;;;;;8.40;3.42;;;;;;;1.53;70.47;101492.81;5014206;28;20042;-80
2022/04/02 00:52:24;;;;;;;8.45;3.38;;;;;;;1.52;69.13;101491.06;5014986;28;20108;-81
2022/04/02 00:54:52;;;;;;;8.75;3.63;;;;;;;1.53;70.29;101495.38;5017516;28;20026;-81
2022/04/02 00:57:17;;;;;;;7.55;3.60;;;;;;;1.51;70.14;101491.84;5015317;28;20092;-81
2022/04/02 00:59:43;;;;;;;8.38;3.78;;;;;;;1.52;70.39;101491.06;5016610;28;20311;-81
2022/04/02 01:02:08;;;;;;;7.75;3.90;;;;;;;1.52;69.76;101491.06;5014231;28;20018;-81
2022/04/02 01:04:34;;;;;;;8.32;4.15;;;;;;;1.52;70.37;101490.13;5022433;28;20046;-80
2022/04/02 01:07:00;;;;;;;9.02;4.00;;;;;;;1.49;69.90;101490.84;5025027;28;20319;-81
2022/04/02 01:09:26;;;;;;;6.82;3.53;;;;;;;1.50;70.18;101494.28;5012743;28;20018;-81
2022/04/02 01:11:52;;;;;;;7.90;3.78;;;;;;;1.48;70.33;101491.63;5025579;28;20093;-80
2022/04/02 01:14:18;;;;;;;8.60;3.75;;;;;;;1.49;69.94;101495.06;5018810;28;20026;-81
2022/04/02 01:16:44;;;;;;;11.25;3.97;;;;;;;1.48;69.93;101486.47;5021091;28;20058;-81
2022/04/02 01:19:09;;;;;;;7.57;3.65;;;;;;;1.48;69.65;101499.31;5012003;28;20018;-80
2022/04/02 01:21:36;;;;;;;9.50;4.10;;;;;;;1.48;70.01;101493.31;5021091;28;20056;-79
2022/04/02 01:24:02;;;;;;;9.85;4.53;;;;;;;1.48;70.72;101501.88;5010010;28;20053;-80
2022/04/02 01:26:28;;;;;;;9.38;3.92;;;;;;;1.45;70.06;101493.06;5022578;28;20014;-80
2022/04/02 01:28:58;;;;;;;9.18;4.32;;;;;;;1.44;70.03;101492.19;5019394;28;20169;-80
2022/04/02 01:31:24;;;;;;;10.13;4.28;;;;;;;1.42;69.10;101486.06;5023157;28;20025;-80
2022/04/02 01:33:50;;;;;;;11.38;4.50;;;;;;;1.44;69.25;101488.72;5012961;28;20025;-80
2022/04/02 01:36:16;;;;;;;12.38;4.40;;;;;;;1.43;69.61;101494.63;5015454;28;20022;-80
2022/04/02 01:38:42;;;;;;;11.43;4.72;;;;;;;1.42;70.18;101492.84;5020998;28;20205;-80
2022/04/02 01:41:08;;;;;;;11.10;4.32;;;;;;;1.42;70.83;101480.91;5016973;28;20279;-80
2022/04/02 01:43:34;;;;;;;12.07;4.68;;;;;;;1.40;69.70;101479.91;5016771;28;20077;-80
2022/04/02 01:46:00;;;;;;;11.60;4.68;;;;;;;1.40;70.17;101487.59;5018471;28;20025;-80
2022/04/02 01:48:26;;;;;;;24.20;6.55;;;;;;;1.41;69.76;101479.13;5020591;28;20249;-80
2022/04/02 01:50:52;;;;;;;11.30;4.72;;;;;;;1.39;69.52;101483.25;5020968;28;20324;-80
2022/04/02 01:53:19;;;;;;;11.68;5.28;;;;;;;1.38;69.61;101490.06;5016445;28;20093;-80
2022/04/02 01:55:45;;;;;;;11.48;4.97;;;;;;;1.37;70.86;101493.41;5019429;28;20030;-80
2022/04/02 01:58:10;;;;;;;12.77;5.28;;;;;;;1.36;69.37;101493.31;5016561;28;20054;-80
2022/04/02 02:00:36;;;;;;;12.93;5.25;;;;;;;1.36;69.10;101488.16;5019820;28;20018;-80
2022/04/02 02:03:01;;;;;;;14.23;5.57;;;;;;;1.34;69.71;101500.91;5017095;28;20098;-80
2022/04/02 02:05:27;;;;;;;12.05;5.25;;;;;;;1.35;69.63;101499.25;5017931;28;20014;-80
2022/04/02 02:07:53;;;;;;;14.13;5.72;;;;;;;1.34;69.77;101502.59;5021816;28;20022;-81
2022/04/02 02:10:18;;;;;;;12.45;5.05;;;;;;;1.30;70.05;101506.59;5022301;28;20057;-81
2022/04/02 02:12:44;;;;;;;15.35;5.60;;;;;;;1.30;69.87;101504.03;5019873;28;20025;-80
2022/04/02 02:15:16;;;;;;;13.93;5.45;;;;;;;1.28;69.32;101504.72;5018912;28;20226;-81
2022/04/02 02:17:43;;;;;;;13.57;6.00;;;;;;;1.26;70.18;101502.03;5016521;28;20280;-81
2022/04/02 02:20:09;;;;;;;14.90;5.82;;;;;;;1.25;70.52;101504.50;5018283;28;20013;-81
2022/04/02 02:22:34;;;;;;;16.58;6.13;;;;;;;1.23;70.33;101508.63;5023403;28;20116;-81
2022/04/02 02:24:59;;;;;;;12.07;6.22;;;;;;;1.22;69.83;101505.16;5023468;28;20256;-80
2022/04/02 02:27:25;;;;;;;11.10;5.20;;;;;;;1.19;70.64;101500.69;5019847;28;20089;-80
2022/04/02 02:29:52;;;;;;;12.65;5.28;;;;;;;1.17;70.22;101509.97;5023187;28;20026;-81
2022/04/02 02:32:17;;;;;;;12.52;5.30;;;;;;;1.20;69.36;101517.91;5009951;28;20026;-80
2022/04/02 02:37:27;;;;;;;12.40;5.00;;;;;;;1.18;69.62;101516.88;5016973;28;20037;-81
2022/04/02 02:39:53;;;;;;;13.07;5.03;;;;;;;1.18;69.48;101513.44;5023252;28;20038;-80
2022/04/02 02:42:19;;;;;;;12.80;4.72;;;;;;;1.18;68.98;101513.44;5020457;28;20014;-80
2022/04/02 02:44:44;;;;;;;10.65;4.97;;;;;;;1.16;68.94;101521.03;5020245;28;20076;-80
2022/04/02 02:47:11;;;;;;;10.63;4.60;;;;;;;1.18;68.52;101519.44;5022401;28;20032;-76
2022/04/02 02:49:36;;;;;;;11.65;4.80;;;;;;;1.16;69.58;101520.09;5025126;28;20037;-76
2022/04/02 02:52:02;;;;;;;10.80;4.97;;;;;;;1.17;70.04;101527.03;5024368;28;20060;-76
2022/04/02 02:54:27;;;;;;;10.82;4.85;;;;;;;1.14;69.64;101520.00;5023641;28;20168;-76
2022/04/02 02:56:53;;;;;;;13.35;4.35;;;;;;;1.14;68.69;101524.25;5022803;28;20018;-76
2022/04/02 02:59:18;;;;;;;11.20;4.65;;;;;;;1.12;69.67;101521.56;5023501;28;20029;-76
2022/04/02 03:01:44;;;;;;;11.48;4.43;;;;;;;1.10;70.48;101524.81;5023917;28;20101;-76
2022/04/02 03:04:09;;;;;;;10.27;4.35;;;;;;;1.09;70.08;101518.78;5023851;28;20264;-76
2022/04/02 03:06:34;;;;;;;11.38;4.05;;;;;;;1.07;70.33;101525.47;5023253;28;20037;-76
2022/04/02 03:09:00;;;;;;;13.95;4.45;;;;;;;1.07;70.26;101522.00;5014481;28;20065;-76
2022/04/02 03:11:25;;;;;;;12.80;4.47;;;;;;;1.07;69.70;101522.91;5020559;28;20315;-76
2022/04/02 03:13:50;;;;;;;11.65;4.13;;;;;;;1.07;70.02;101525.47;5023543;28;20216;-76
2022/04/02 03:16:16;;;;;;;11.00;4.35;;;;;;;1.05;70.14;101519.34;5024351;28;20025;-80
2022/04/02 03:18:41;;;;;;;8.00;3.60;;;;;;;1.06;70.93;101517.66;5020995;28;20045;-80
2022/04/02 03:21:06;;;;;;;8.68;3.55;;;;;;;1.04;70.70;101515.91;5016129;28;20252;-81
2022/04/02 03:23:32;;;;;;;7.05;3.40;;;;;;;1.04;71.11;101522.69;5022207;28;20014;-81
2022/04/02 03:25:58;;;;;;;9.20;3.85;;;;;;;1.01;70.55;101520.81;5024931;28;20253;-81
2022/04/02 03:28:23;;;;;;;10.98;4.25;;;;;;;0.99;70.83;101522.34;5023503;28;20018;-80
2022/04/02 03:30:48;;;;;;;11.70;3.70;;;;;;;0.98;70.56;101527.38;5019030;28;20028;-80
2022/04/02 03:33:14;;;;;;;12.10;4.03;;;;;;;0.96;70.17;101526.38;5021204;28;20291;-81
2022/04/02 03:35:40;;;;;;;9.20;3.20;;;;;;;0.95;70.89;101534.84;5018874;28;20053;-81
2022/04/02 03:38:05;;;;;;;9.65;4.30;;;;;;;0.93;70.14;101526.13;5024271;28;20025;-81
2022/04/02 03:40:31;;;;;;;8.45;3.70;;;;;;;0.91;70.76;101528.59;5024760;28;20310;-81
2022/04/02 03:42:57;;;;;;;8.80;3.33;;;;;;;0.91;70.50;101530.25;5014728;28;20032;-81
2022/04/02 03:45:22;;;;;;;8.95;3.72;;;;;;;0.90;70.33;101536.16;5016490;28;20038;-81
2022/04/02 03:47:48;;;;;;;7.93;3.30;;;;;;;0.88;70.69;101538.63;5016882;28;20020;-80
2022/04/02 03:50:14;;;;;;;7.07;3.30;;;;;;;0.85;70.86;101540.97;5011991;28;20038;-81
2022/04/02 03:52:40;;;;;;;9.45;3.85;;;;;;;0.84;71.32;101547.78;5020777;28;20025;-81
2022/04/02 03:55:06;;;;;;;8.15;3.53;;;;;;;0.81;71.19;101552.69;5022605;28;20022;-81
2022/04/02 03:57:33;;;;;;;7.85;3.67;;;;;;;0.78;71.53;101547.34;5019812;28;20299;-81
2022/04/02 03:59:58;;;;;;;9.10;3.78;;;;;;;0.76;72.27;101554.00;5022004;28;20025;-81
2022/04/02 04:02:23;;;;;;;8.43;3.60;;;;;;;0.76;71.40;101548.00;5021547;28;20025;-81
2022/04/02 04:04:49;;;;;;;12.25;3.95;;;;;;;0.75;70.94;101557.34;5014620;28;20019;-81
2022/04/02 04:07:15;;;;;;;8.60;3.78;;;;;;;0.75;71.42;101553.88;5020398;28;20025;-81
2022/04/02 04:09:40;;;;;;;8.07;3.55;;;;;;;0.75;71.87;101561.59;5023142;28;20018;-81
2022/04/02 04:12:10;;;;;;;8.40;3.33;;;;;;;0.74;71.50;101553.00;5021068;28;20029;-81
2022/04/02 04:14:35;;;;;;;;;;;;;;;0.78;72.12;101552.47;5009488;28;20030;-81
2022/04/02 04:17:01;;;;;;;7.97;3.20;;;;;;;0.74;72.64;101552.09;5012421;28;19905;-81
2022/04/02 04:19:27;;;;;;;8.88;3.60;;;;;;;0.73;71.54;101555.47;5020360;28;20018;-81
2022/04/02 04:21:53;;;;;;;9.27;3.47;;;;;;;0.72;72.45;101567.38;5022966;28;20307;-81
2022/04/02 04:24:19;;;;;;;11.40;3.95;;;;;;;0.71;71.32;101565.59;5022945;28;20188;-81
2022/04/02 04:26:44;;;;;;;10.13;3.92;;;;;;;0.71;72.10;101563.03;5023351;28;20050;-82
2022/04/02 04:29:10;;;;;;;8.00;3.33;;;;;;;0.69;71.67;101562.91;5018057;28;20018;-82
2022/04/02 04:31:36;;;;;;;7.45;3.10;;;;;;;0.68;71.80;101566.28;5013089;28;20041;-81
2022/04/02 04:34:02;;;;;;;8.88;3.67;;;;;;;0.68;71.22;101567.91;5012203;28;20018;-82
2022/04/02 04:36:29;;;;;;;8.23;3.58;;;;;;;0.66;71.97;101561.78;5017727;28;20283;-81
2022/04/02 04:38:56;;;;;;;8.95;3.33;;;;;;;0.67;72.09;101571.28;5023127;28;20082;-81
2022/04/02 04:41:21;;;;;;;7.18;3.13;;;;;;;0.67;71.08;101568.72;5019976;28;20292;-82
2022/04/02 04:43:50;;;;;;;9.00;3.83;;;;;;;0.68;71.18;101578.19;5016900;28;20067;-82
2022/04/02 04:46:16;;;;;;;8.83;3.40;;;;;;;0.69;71.48;101579.97;5017806;28;20204;-82
2022/04/02 04:48:42;;;;;;;9.30;3.50;;;;;;;0.66;71.61;101583.19;5017242;28;20006;-82
2022/04/02 04:51:09;;;;;;;8.70;3.25;;;;;;;0.67;72.01;101586.66;5013597;28;20024;-82
2022/04/02 04:53:34;;;;;;;8.75;3.47;;;;;;;0.67;71.33;101596.94;5021016;28;20280;-82
2022/04/02 04:56:00;;;;;;;8.32;3.47;;;;;;;0.66;71.55;101595.13;5021784;28;20025;-82
2022/04/02 04:58:27;;;;;;;8.52;3.55;;;;;;;0.67;71.25;101599.50;5020057;28;20029;-82
2022/04/02 05:00:53;;;;;;;8.52;3.80;;;;;;;0.67;70.51;101596.94;5015547;28;20029;-82
2022/04/02 05:03:20;;;;;;;7.00;3.25;;;;;;;0.65;71.36;101601.94;5018860;28;20017;-83
2022/04/02 05:05:46;;;;;;;6.30;3.20;;;;;;;0.67;71.21;101599.50;5015540;28;20080;-83
2022/04/02 05:08:13;;;;;;;7.93;3.15;;;;;;;0.68;72.07;101606.38;5018228;28;20013;-83
2022/04/02 05:10:40;;;;;;;7.78;3.20;;;;;;;0.68;70.85;101606.38;5023021;28;20049;-82
2022/04/02 05:13:07;;;;;;;7.57;3.30;;;;;;;0.67;71.18;101618.34;5020876;28;20034;-82
2022/04/02 05:15:35;;;;;;;7.35;3.30;;;;;;;0.67;71.18;101620.00;5005707;28;20034;-82
2022/04/02 05:18:01;;;;;;;5.95;2.90;;;;;;;0.68;71.78;101621.78;5015046;28;20053;-82
2022/04/02 05:20:26;;;;;;;9.15;3.10;;;;;;;0.68;70.24;101624.34;5011760;28;20099;-82
2022/04/02 05:22:51;;;;;;;7.38;3.28;;;;;;;0.69;70.43;101618.44;5018605;28;20014;-83
2022/04/02 05:25:17;;;;;;;8.68;3.20;;;;;;;0.71;70.98;101621.13;5021457;28;20181;-82
2022/04/02 05:27:43;;;;;;;6.30;3.13;;;;;;;0.69;70.38;101631.28;5015893;28;20130;-82
2022/04/02 05:30:11;;;;;;;7.13;3.20;;;;;;;0.69;70.57;101638.97;5012859;28;20256;-83
2022/04/02 05:32:36;;;;;;;6.28;3.13;;;;;;;0.70;71.39;101648.44;5016087;28;20018;-83
2022/04/02 05:35:02;;;;;;;7.28;3.08;;;;;;;0.72;70.74;101643.44;5018594;28;20286;-83
2022/04/02 05:37:28;;;;;;;5.85;2.70;;;;;;;0.73;70.79;101648.69;5018746;28;20029;-82
2022/04/02 05:39:53;;;;;;;8.50;3.22;;;;;;;0.73;71.36;101651.25;5021064;28;20282;-82
2022/04/02 05:42:18;;;;;;;6.85;3.38;;;;;;;0.75;70.92;101653.94;5014869;28;20073;-82
2022/04/02 05:44:44;;;;;;;7.35;3.20;;;;;;;0.75;71.04;101651.34;5021330;28;20060;-82
2022/04/02 06:00:36;;;;;;;6.85;2.95;;;;;;;0.81;72.06;101680.03;5012900;28;20057;-83
2022/04/02 06:03:03;;;;;;;7.55;3.10;;;;;;;0.80;72.28;101670.56;5011083;28;20261;-82
2022/04/02 06:05:28;;;;;;;9.15;3.22;;;;;;;0.81;72.15;101675.81;5022831;28;20021;-82
2022/04/02 06:07:53;;;;;;;7.47;3.30;;;;;;;0.80;72.22;101676.59;5017383;28;20048;-82
2022/04/02 06:10:19;;;;;;;6.85;2.95;;;;;;;0.83;70.84;101683.63;5024448;28;20020;-81
2022/04/02 06:12:44;;;;;;;5.78;2.83;;;;;;;0.84;72.56;101682.84;5024368;28;20161;-82
2022/04/02 06:15:09;;;;;;;6.93;3.30;;;;;;;0.84;72.37;101686.31;5015194;28;20052;-82
2022/04/02 06:17:35;;;;;;;7.55;3.30;;;;;;;0.85;72.91;101688.13;5016487;28;20025;-82
2022/04/02 06:20:01;;;;;;;7.55;3.30;;;;;;;0.87;73.12;101693.34;5018317;28;20025;-82
2022/04/02 06:22:26;;;;;;;7.80;3.13;;;;;;;0.89;72.49;101694.34;5022010;28;20021;-80
2022/04/02 06:24:51;;;;;;;9.75;3.85;;;;;;;0.90;71.88;101697.81;5024692;28;20294;-82
2022/04/02 06:27:16;;;;;;;6.93;3.20;;;;;;;0.93;72.22;101698.03;5020962;28;20018;-82
2022/04/02 06:29:42;;;;;;;7.82;3.42;;;;;;;0.94;71.91;101710.09;5016006;28;20026;-81
2022/04/02 06:32:08;;;;;;;8.57;3.97;;;;;;;0.97;72.49;101702.63;5018479;28;20014;-82
2022/04/02 06:34:33;;;;;;;6.32;3.22;;;;;;;1.01;72.78;101714.91;5010625;28;20257;-81
2022/04/02 06:36:59;;;;;;;9.20;3.15;;;;;;;1.05;72.93;101711.81;5012099;28;20025;-81
2022/04/02 06:39:24;;;;;;;6.35;2.95;;;;;;;1.09;71.70;101713.84;5025389;28;20033;-81
2022/04/02 06:41:49;;;;;;;6.65;3.35;;;;;;;1.11;72.65;101719.97;5017788;28;20227;-81
2022/04/02 06:44:15;;;;;;;7.90;3.60;;;;;;;1.15;72.18;101718.53;5022699;28;20030;-81
2022/04/02 06:46:42;;;;;;;6.30;3.10;;;;;;;1.19;72.24;101723.13;5023316;28;20092;-81
2022/04/02 06:49:09;;;;;;;9.02;3.53;;;;;;;1.21;72.76;101722.44;5014551;28;20010;-81
2022/04/02 06:51:35;;;;;;;5.93;2.90;;;;;;;1.27;71.86;101726.28;5019359;28;20018;-81
2022/04/02 06:54:00;;;;;;;8.38;3.08;;;;;;;1.32;71.27;101732.66;5014375;28;20026;-81
2022/04/02 06:56:26;;;;;;;7.70;3.13;;;;;;;1.39;71.45;101745.16;5024775;28;20071;-81
2022/04/02 06:58:51;;;;;;;7.20;3.20;;;;;;;1.46;71.95;101742.25;5021567;28;20026;-81
2022/04/02 07:01:17;;;;;;;8.48;3.35;;;;;;;1.53;72.05;101739.38;5015637;28;20026;-81
2022/04/02 07:03:42;;;;;;;7.47;3.33;;;;;;;1.63;70.01;101750.34;5014392;28;20205;-80
2022/04/02 07:06:08;;;;;;;7.70;3.30;;;;;;;1.72;70.86;101749.38;5018455;28;20017;-80
2022/04/02 07:08:35;;;;;;;6.43;3.22;;;;;;;1.82;69.56;101748.34;5019700;28;20018;-80
2022/04/02 07:11:01;;;;;;;6.85;3.50;;;;;;;1.94;70.17;101747.47;5024407;28;20041;-80
2022/04/02 07:13:26;;;;;;;8.40;3.38;;;;;;;2.03;70.43;101753.28;5023342;28;20268;-80
2022/04/02 07:15:51;;;;;;;8.20;3.15;;;;;;;2.13;69.78;101753.16;5023817;28;20260;-80
2022/04/02 07:18:19;;;;;;;7.93;3.47;;;;;;;2.19;69.93;101756.19;5022861;28;20033;-80
2022/04/02 07:20:50;;;;;;;7.03;3.30;;;;;;;2.22;70.25;101763.22;5024495;28;20060;-80
2022/04/02 07:23:16;;;;;;;7.88;3.55;;;;;;;2.22;70.14;101766.69;5023306;28;20062;-80
2022/04/02 07:25:41;;;;;;;7.35;3.70;;;;;;;2.24;69.49;101761.66;5023313;28;20017;-80
2022/04/02 07:28:08;;;;;;;7.20;3.42;;;;;;;2.24;69.84;101769.34;5023484;28;20171;-75
2022/04/02 07:30:35;;;;;;;8.82;3.80;;;;;;;2.24;69.64;101774.50;5024466;28;20022;-75
2022/04/02 07:33:00;;;;;;;9.88;3.70;;;;;;;2.24;69.14;101762.53;5024823;28;20017;-75
2022/04/02 07:35:31;;;;;;;6.80;3.55;;;;;;;2.29;69.89;101772.25;5024205;28;20041;-75
2022/04/02 07:38:27;;;;;;;7.70;3.60;;;;;;;2.36;69.88;101779.63;5022476;28;20021;-75
2022/04/02 07:41:34;;;;;;;7.95;3.35;;;;;;;2.45;70.10;101790.59;5024208;28;20026;-75
2022/04/02 07:44:16;;;;;;;7.75;3.60;;;;;;;2.54;69.54;101793.81;5022676;28;20292;-75
2022/04/02 07:46:43;;;;;;;8.85;3.63;;;;;;;2.60;68.06;101786.53;5021886;28;20031;-75
2022/04/02 07:49:11;;;;;;;6.90;3.00;;;;;;;2.69;68.28;101790.53;5022472;28;20068;-75
2022/04/02 07:51:38;;;;;;;8.13;3.25;;;;;;;2.80;68.73;101792.19;5022942;28;20030;-76
2022/04/02 07:54:05;;;;;;;8.18;3.75;;;;;;;2.91;68.26;101795.50;5024427;28;20292;-75
2022/04/02 07:56:37;;;;;;;8.80;3.95;;;;;;;3.02;68.77;101799.72;5022358;28;20018;-76
2022/04/02 07:59:14;;;;;;;7.45;3.70;;;;;;;3.13;68.96;101803.06;5022494;28;20025;-76
2022/04/02 08:01:40;;;;;;;7.40;3.70;;;;;;;3.22;68.61;101801.09;5021512;28;20049;-76
2022/04/02 08:04:06;;;;;;;7.57;3.72;;;;;;;3.34;68.05;101802.75;5016107;28;20045;-76
2022/04/02 08:06:32;;;;;;;10.70;3.88;;;;;;;3.43;68.39;101801.69;5018460;28;20049;-76
2022/04/02 08:08:59;;;;;;;7.68;4.03;;;;;;;3.45;66.55;101800.09;5020743;28;20055;-76
2022/04/02 08:11:26;;;;;;;7.70;4.07;;;;;;;3.48;65.77;101802.00;5021596;28;20036;-76
2022/04/02 08:13:52;;;;;;;7.75;4.05;;;;;;;3.50;65.60;101795.25;5024157;28;20271;-76
2022/04/02 08:16:17;;;;;;;8.43;4.30;;;;;;;3.55;66.53;101806.78;5021840;28;20021;-76
2022/04/02 08:18:44;;;;;;;8.07;3.88;;;;;;;3.60;65.56;101810.53;5023142;28;20083;-76
2022/04/02 08:21:09;;;;;;;8.48;4.03;;;;;;;3.64;65.78;101807.38;5013987;28;20272;-76
2022/04/02 08:23:36;;;;;;;9.02;4.40;;;;;;;3.68;65.64;101807.59;5012885;28;20231;-76
2022/04/02 08:26:38;;;;;;;8.90;4.20;;;;;;;3.75;67.02;101809.78;5020831;28;20029;-76
2022/04/02 08:29:21;;;;;;;10.23;4.53;;;;;;;3.79;66.24;101811.78;5017332;28;20156;-80
2022/04/02 08:32:03;;;;;;;10.02;4.60;;;;;;;3.79;65.32;101810.09;5014989;28;20021;-80
2022/04/02 08:35:04;;;;;;;8.13;4.07;;;;;;;3.77;65.33;101814.25;5023516;28;20168;-80
2022/04/02 08:37:32;;;;;;;10.20;4.40;;;;;;;3.77;66.30;101818.53;5021721;28;20025;-80
2022/04/02 08:40:00;;;;;;;10.57;3.90;;;;;;;3.75;65.30;101825.25;5021891;28;20228;-80
2022/04/02 08:43:05;;;;;;;9.95;4.43;;;;;;;3.74;65.49;101823.50;5021606;28;20022;-79
2022/04/02 08:45:32;;;;;;;10.63;4.88;;;;;;;3.68;65.52;101829.13;5022823;28;20158;-80
2022/04/02 08:48:23;;;;;;;9.45;4.43;;;;;;;3.67;65.74;101836.75;5022791;28;20010;-80
2022/04/02 08:50:54;;;;;;;10.88;4.82;;;;;;;3.62;66.08;101839.91;5021428;28;20157;-80
2022/04/02 08:53:49;;;;;;;9.02;4.65;;;;;;;3.64;66.19;101845.16;5022772;28;20023;-81
2022/04/02 08:56:25;;;;;;;9.93;4.72;;;;;;;3.60;66.95;101841.47;5020614;28;20018;-80
2022/04/02 08:59:05;;;;;;;10.65;5.38;;;;;;;3.60;66.24;101846.63;5021335;28;20128;-80
2022/04/02 09:01:42;;;;;;;10.88;4.75;;;;;;;3.60;66.88;101841.47;5021097;28;20018;-80
2022/04/02 09:04:39;;;;;;;9.23;4.93;;;;;;;3.65;67.01;101849.53;5019676;28;20010;-80
2022/04/02 09:07:30;;;;;;;12.70;4.90;;;;;;;3.70;66.84;101858.47;5010374;28;20030;-80
2022/04/02 09:10:17;;;;;;;9.63;5.10;;;;;;;3.73;66.69;101868.09;5014855;28;20018;-80
2022/04/02 09:13:03;;;;;;;11.20;4.78;;;;;;;3.75;67.82;101863.91;5015314;28;20029;-80
2022/04/02 09:15:54;;;;;;;11.43;5.35;;;;;;;3.80;67.61;101866.03;5018854;28;20292;-80
2022/04/02 09:19:04;;;;;;;10.43;4.68;;;;;;;3.87;67.83;101871.59;5023177;28;20045;-80
2022/04/02 09:21:53;;;;;;;8.90;4.78;;;;;;;3.89;66.76;101870.03;5026576;28;20307;-80
2022/04/02 09:24:37;;;;;;;12.52;5.82;;;;;;;3.88;66.31;101871.72;5025647;28;20430;-80
2022/04/02 09:27:11;;;;;;;10.15;5.47;;;;;;;3.88;66.72;101869.13;5025355;28;20056;-80
2022/04/02 09:29:46;;;;;;;13.52;6.28;;;;;;;3.91;67.08;101866.75;5025527;28;20168;-80
2022/04/02 09:32:39;;;;;;;10.75;5.00;;;;;;;3.95;65.93;101875.56;5024643;28;20018;-80
2022/04/02 09:35:22;;;;;;;10.52;5.22;;;;;;;3.92;66.63;101873.69;5024025;28;20092;-80
2022/04/02 09:38:26;;;;;;;9.57;5.35;;;;;;;3.93;66.34;101887.50;5019298;28;20064;-80
2022/04/02 09:40:57;;;;;;;9.57;5.28;;;;;;;3.87;64.87;101880.22;5018914;28;20057;-80
2022/04/02 09:43:29;;;;;;;9.52;5.22;;;;;;;3.89;65.75;101886.38;5026150;28;20026;-80
2022/04/02 09:46:28;;;;;;;12.00;5.50;;;;;;;3.96;65.19;101883.41;5026470;28;20037;-80
2022/04/02 09:49:19;;;;;;;13.60;6.13;;;;;;;4.18;66.38;101882.28;5026135;28;20018;-80
2022/04/02 09:51:55;;;;;;;10.00;5.35;;;;;;;4.37;64.39;101883.50;5026615;28;20120;-80
2022/04/02 09:54:46;;;;;;;10.98;5.28;;;;;;;4.49;65.06;101873.94;5022775;28;20364;-80
2022/04/02 09:57:25;;;;;;;12.68;5.57;;;;;;;4.56;64.25;101873.56;5018106;28;20038;-80
2022/04/02 10:00:05;;;;;;;11.23;6.15;;;;;;;4.68;65.47;101876.94;5023924;28;20097;-80
2022/04/02 10:03:00;;;;;;;11.85;5.43;;;;;;;4.78;64.05;101877.50;5023982;28;20028;-79
2022/04/02 10:06:02;;;;;;;9.93;5.43;;;;;;;4.87;64.80;101870.38;5025441;28;20075;-80
2022/04/02 10:09:03;;;;;;;10.32;4.95;;;;;;;4.93;64.81;101875.03;5023974;28;20291;-80
2022/04/02 10:11:30;;;;;;;14.02;6.07;;;;;;;5.05;64.82;101875.78;5025836;28;20372;-81
2022/04/02 10:14:00;;;;;;;10.73;5.55;;;;;;;5.21;61.47;101875.03;5025577;28;20245;-80
2022/04/02 10:16:27;;;;;;;11.40;5.72;;;;;;;5.38;63.82;101868.34;5020977;28;20045;-80
2022/04/02 10:18:59;;;;;;;11.38;5.88;;;;;;;5.47;63.43;101868.00;5022974;28;20021;-79
2022/04/02 10:21:24;;;;;;;13.23;6.13;;;;;;;5.44;63.04;101870.41;5023641;28;20025;-79
2022/04/02 10:24:11;;;;;;;12.90;6.05;;;;;;;5.34;62.10;101864.66;5018956;28;20153;-79
2022/04/02 10:26:39;;;;;;;11.77;5.93;;;;;;;5.25;61.58;101864.09;5022132;28;20265;-79
2022/04/02 10:29:12;;;;;;;12.52;5.70;;;;;;;5.21;63.43;101868.22;5019958;28;20022;-79
2022/04/02 10:31:57;;;;;;;10.77;5.82;;;;;;;5.16;63.61;101866.13;5022792;28;20026;-79
2022/04/02 10:34:45;;;;;;;13.23;5.93;;;;;;;5.02;64.98;101863.56;5025087;28;20021;-80
2022/04/02 10:37:18;;;;;;;11.93;5.95;;;;;;;4.88;66.04;101864.38;5022047;28;20064;-79
2022/04/02 10:39:56;;;;;;;14.63;6.45;;;;;;;4.80;67.33;101868.19;5023298;28;20029;-79
2022/04/02 10:42:32;;;;;;;13.30;6.47;;;;;;;4.70;66.06;101869.28;5014397;28;20253;-79
2022/04/02 10:44:59;;;;;;;11.77;6.18;;;;;;;4.60;66.10;101862.63;5024638;28;20021;-79
2022/04/02 10:47:27;;;;;;;11.32;5.57;;;;;;;4.51;64.74;101862.94;5023182;28;20044;-79
2022/04/02 10:50:05;;;;;;;14.05;6.00;;;;;;;4.44;66.03;101870.19;5024933;28;20041;-78
2022/04/02 10:52:31;;;;;;;11.50;5.63;;;;;;;4.38;64.40;101872.38;5018975;28;20097;-79
2022/04/02 10:54:58;;;;;;;15.10;6.10;;;;;;;4.32;66.49;101872.88;5024643;28;20021;-79
2022/04/02 10:57:27;;;;;;;11.88;5.68;;;;;;;4.26;65.66;101878.53;5024428;28;20026;-79
2022/04/02 11:00:03;;;;;;;13.07;6.30;;;;;;;4.20;66.90;101870.38;5024239;28;20030;-79
2022/04/02 11:02:38;;;;;;;10.50;5.57;;;;;;;4.16;65.56;101874.44;5022681;28;20029;-79
2022/04/02 11:05:05;;;;;;;12.77;6.20;;;;;;;4.14;66.05;101872.53;5023285;28;20280;-79
2022/04/02 11:07:35;;;;;;;14.38;5.82;;;;;;;4.12;65.53;101877.59;5022453;28;20336;-78
2022/04/02 11:10:00;;;;;;;11.50;5.82;;;;;;;4.12;66.08;101874.13;5013719;28;20136;-78
2022/04/02 11:12:33;;;;;;;12.77;6.03;;;;;;;4.11;64.32;101872.34;5017788;28;20129;-78
2022/04/02 11:15:27;;;;;;;12.23;6.05;;;;;;;4.08;64.82;101872.13;5014353;28;20050;-79
2022/04/02 11:17:55;;;;;;;12.38;5.57;;;;;;;4.11;65.54;101867.19;5022690;28;20026;-78
2022/04/02 11:20:22;;;;;;;8.90;5.15;;;;;;;4.18;65.92;101866.78;5022406;28;20267;-78
2022/04/02 11:22:57;;;;;;;10.45;5.20;;;;;;;4.34;66.38;101861.88;5015928;28;20080;-78
2022/04/02 11:25:31;;;;;;;11.05;5.28;;;;;;;4.49;66.20;101861.03;5024806;28;20264;-79
2022/04/02 11:28:20;;;;;;;11.80;5.53;;;;;;;4.58;65.59;101859.06;5023033;28;20253;-78
2022/04/02 11:30:47;;;;;;;10.82;5.63;;;;;;;4.63;65.62;101862.81;5017005;28;20026;-78
2022/04/02 11:33:22;;;;;;;10.50;5.60;;;;;;;4.65;63.67;101863.84;5022790;28;20223;-78
2022/04/02 11:35:58;;;;;;;10.38;5.40;;;;;;;4.65;62.38;101863.84;5024154;28;20148;-78
2022/04/02 11:38:32;;;;;;;10.32;4.80;;;;;;;4.60;60.74;101857.47;5012934;28;20015;-76
2022/04/02 11:41:20;;;;;;;9.65;4.85;;;;;;;4.57;60.83;101864.13;5021871;28;20082;-76
2022/04/02 11:43:47;;;;;;;10.13;4.60;;;;;;;4.56;60.10;101867.50;5018782;28;20049;-76
2022/04/02 11:46:14;;;;;;;8.18;4.40;;;;;;;4.57;58.43;101870.19;5017215;28;20120;-76
2022/04/02 11:48:57;;;;;;;7.78;4.10;;;;;;;4.61;60.16;101868.72;5022135;28;20072;-75
2022/04/02 11:51:29;;;;;;;9.40;4.65;;;;;;;4.69;60.22;101868.41;5022101;28;20192;-75
2022/04/02 11:54:02;;;;;;;8.70;4.30;;;;;;;4.90;61.42;101860.22;5022712;28;20029;-75
2022/04/02 11:56:47;;;;;;;9.10;4.30;;;;;;;5.15;61.52;101861.75;5014963;28;20092;-76
2022/04/02 11:59:17;;;;;;;8.55;3.88;;;;;;;5.38;59.31;101863.19;5022439;28;20310;-76
2022/04/02 12:01:46;;;;;;;7.43;3.83;;;;;;;5.58;58.84;101857.50;5023324;28;20032;-76